Time,TemperatureF,DewpointF,PressureIn,WindDirection,WindDirectionDegrees,WindSpeedMPH,WindSpeedGustMPH,Humidity,HourlyPrecipIn,Conditions,Clouds,dailyrainin,SoftwareType,DateUTC
2013-01-29 00:01:00,38.8,37.8,29.93,NE,50,0.0,0.0,96,0.00,,,0.22,WeatherLinkWUIModule,2013-01-29 05:01:00,
2013-01-29 00:11:00,38.5,37.5,29.93,NE,50,0.0,0.0,96,0.00,,,0.00,WeatherLinkWUIModule,2013-01-29 05:11:00,
2013-01-29 00:21:00,38.0,37.0,29.93,NE,50,2.0,0.0,96,0.00,,,0.00,WeatherLinkWUIModule,2013-01-29 05:21:00,
2013-01-29 00:31:00,37.6,36.6,29.94,NE,50,0.0,0.0,96,0.00,,,0.00,WeatherLinkWUIModule,2013-01-29 05:31:00,
2013-01-29 00:41:00,37.3,36.3,29.94,NE,50,0.0,0.0,96,0.00,,,0.00,WeatherLinkWUIModule,2013-01-29 05:41:00,
2013-01-29 00:51:00,37.2,36.2,29.94,NE,50,0.0,0.0,96,0.00,,,0.00,WeatherLinkWUIModule,2013-01-29 05:51:00,
2013-01-29 01:01:00,36.9,35.9,29.95,NE,50,0.0,0.0,96,0.00,,,0.00,WeatherLinkWUIModule,2013-01-29 06:01:00,
2013-01-29 01:11:00,36.8,35.8,29.95,NE,50,0.0,0.0,96,0.00,,,0.00,WeatherLinkWUIModule,2013-01-29 06:11:00,
2013-01-29 01:21:00,36.6,35.6,29.94,NE,50,0.0,0.0,96,0.00,,,0.00,WeatherLinkWUIModule,2013-01-29 06:21:00,
2013-01-29 01:31:00,36.3,35.3,29.95,NE,50,0.0,0.0,96,0.00,,,0.00,WeatherLinkWUIModule,2013-01-29 06:31:00,
2013-01-29 01:41:00,36.0,34.7,29.95,NE,50,0.0,0.0,95,0.00,,,0.00,WeatherLinkWUIModule,2013-01-29 06:41:00,
2013-01-29 01:51:00,35.9,34.6,29.96,NE,50,0.0,0.0,95,0.00,,,0.00,WeatherLinkWUIModule,2013-01-29 06:51:00,
2013-01-29 02:01:00,35.6,34.6,29.97,East,94,0.0,6.0,96,0.00,,,0.00,WeatherLinkWUIModule,2013-01-29 07:01:00,
2013-01-29 02:11:00,35.3,34.0,29.97,ENE,77,1.0,2.0,95,0.00,,,0.00,WeatherLinkWUIModule,2013-01-29 07:11:00,
2013-01-29 02:21:00,34.7,33.4,29.97,ENE,70,0.0,4.0,95,0.00,,,0.00,WeatherLinkWUIModule,2013-01-29 07:21:00,
2013-01-29 02:31:00,34.3,33.0,29.97,East,100,2.0,2.0,95,0.00,,,0.00,WeatherLinkWUIModule,2013-01-29 07:31:00,
2013-01-29 02:41:00,34.0,32.7,29.97,ESE,107,1.0,4.0,95,0.00,,,0.00,WeatherLinkWUIModule,2013-01-29 07:41:00,
2013-01-29 02:51:00,33.7,32.7,29.98,ENE,73,2.0,2.0,96,0.00,,,0.00,WeatherLinkWUIModule,2013-01-29 07:51:00,
2013-01-29 03:01:00,33.5,32.5,29.98,East,96,1.0,3.0,96,0.00,,,0.00,WeatherLinkWUIModule,2013-01-29 08:01:00,
2013-01-29 03:11:00,33.4,32.4,29.98,East,91,2.0,3.0,96,0.00,,,0.00,WeatherLinkWUIModule,2013-01-29 08:11:00,
2013-01-29 03:21:00,33.2,32.2,29.98,East,91,0.0,2.0,96,0.00,,,0.00,WeatherLinkWUIModule,2013-01-29 08:21:00,
2013-01-29 03:31:00,33.1,32.1,29.99,East,91,0.0,3.0,96,0.00,,,0.00,WeatherLinkWUIModule,2013-01-29 08:31:00,
2013-01-29 03:41:00,32.9,31.9,29.99,ENE,74,0.0,3.0,96,0.00,,,0.00,WeatherLinkWUIModule,2013-01-29 08:41:00,
2013-01-29 03:51:00,32.8,31.8,29.98,ENE,74,1.0,3.0,96,0.00,,,0.00,WeatherLinkWUIModule,2013-01-29 08:51:00,
2013-01-29 04:01:00,32.7,31.7,29.98,ESE,116,1.0,2.0,96,0.00,,,0.00,WeatherLinkWUIModule,2013-01-29 09:01:00,
2013-01-29 04:11:00,32.5,31.5,29.98,East,97,1.0,0.0,96,0.00,,,0.00,WeatherLinkWUIModule,2013-01-29 09:11:00,
2013-01-29 04:21:00,32.5,31.5,29.98,East,97,0.0,3.0,96,0.00,,,0.00,WeatherLinkWUIModule,2013-01-29 09:21:00,
2013-01-29 04:31:00,32.4,31.4,29.98,East,97,0.0,0.0,96,0.00,,,0.00,WeatherLinkWUIModule,2013-01-29 09:31:00,
2013-01-29 04:41:00,32.4,31.4,29.98,East,97,0.0,1.0,96,0.00,,,0.00,WeatherLinkWUIModule,2013-01-29 09:41:00,
2013-01-29 04:51:00,32.4,31.4,29.99,East,97,0.0,0.0,96,0.00,,,0.00,WeatherLinkWUIModule,2013-01-29 09:51:00,
2013-01-29 05:01:00,32.4,31.4,29.99,East,97,0.0,0.0,96,0.00,,,0.00,WeatherLinkWUIModule,2013-01-29 10:01:00,
2013-01-29 05:11:00,32.2,31.2,29.99,East,97,0.0,0.0,96,0.00,,,0.00,WeatherLinkWUIModule,2013-01-29 10:11:00,
2013-01-29 05:21:00,32.2,31.2,30.00,East,97,0.0,0.0,96,0.00,,,0.00,WeatherLinkWUIModule,2013-01-29 10:21:00,
2013-01-29 05:31:00,32.2,31.2,30.00,East,97,0.0,1.0,96,0.00,,,0.00,WeatherLinkWUIModule,2013-01-29 10:31:00,
2013-01-29 05:41:00,32.2,31.2,30.00,East,97,0.0,0.0,96,0.00,,,0.00,WeatherLinkWUIModule,2013-01-29 10:41:00,
2013-01-29 05:51:00,32.2,31.2,30.00,East,97,0.0,0.0,96,0.00,,,0.00,WeatherLinkWUIModule,2013-01-29 10:51:00,
2013-01-29 06:01:00,32.2,31.2,30.00,East,97,0.0,0.0,96,0.00,,,0.00,WeatherLinkWUIModule,2013-01-29 11:01:00,
2013-01-29 06:11:00,32.2,31.2,30.00,East,97,0.0,0.0,96,0.00,,,0.00,WeatherLinkWUIModule,2013-01-29 11:11:00,
2013-01-29 06:21:00,32.2,31.2,30.00,East,97,0.0,0.0,96,0.00,,,0.00,WeatherLinkWUIModule,2013-01-29 11:21:00,
2013-01-29 06:31:00,32.2,31.2,29.98,East,97,0.0,0.0,96,0.00,,,0.00,WeatherLinkWUIModule,2013-01-29 11:31:00,
2013-01-29 06:41:00,32.2,31.2,29.98,East,97,0.0,0.0,96,0.00,,,0.00,WeatherLinkWUIModule,2013-01-29 11:41:00,
2013-01-29 06:51:00,32.2,31.2,29.99,East,97,0.0,0.0,96,0.00,,,0.00,WeatherLinkWUIModule,2013-01-29 11:51:00,
2013-01-29 07:01:00,32.2,31.2,29.99,East,97,0.0,0.0,96,0.00,,,0.00,WeatherLinkWUIModule,2013-01-29 12:01:00,
2013-01-29 07:11:00,32.4,31.4,29.99,East,97,0.0,0.0,96,0.00,,,0.00,WeatherLinkWUIModule,2013-01-29 12:11:00,
2013-01-29 07:21:00,32.4,31.4,29.99,East,100,0.0,1.0,96,0.00,,,0.00,WeatherLinkWUIModule,2013-01-29 12:21:00,
2013-01-29 07:31:00,32.4,31.4,30.00,East,100,0.0,0.0,96,0.00,,,0.00,WeatherLinkWUIModule,2013-01-29 12:31:00,
2013-01-29 07:41:00,32.5,31.5,30.00,East,100,0.0,0.0,96,0.00,,,0.00,WeatherLinkWUIModule,2013-01-29 12:41:00,
2013-01-29 07:51:00,32.5,31.5,29.98,East,100,0.0,0.0,96,0.00,,,0.00,WeatherLinkWUIModule,2013-01-29 12:51:00,
2013-01-29 08:01:00,32.7,31.7,29.99,East,100,0.0,0.0,96,0.00,,,0.00,WeatherLinkWUIModule,2013-01-29 13:01:00,
2013-01-29 08:11:00,32.8,31.8,29.99,East,100,0.0,0.0,96,0.00,,,0.00,WeatherLinkWUIModule,2013-01-29 13:11:00,
2013-01-29 08:21:00,32.9,31.9,30.00,East,100,0.0,0.0,96,0.00,,,0.00,WeatherLinkWUIModule,2013-01-29 13:21:00,
2013-01-29 08:31:00,33.2,32.2,30.00,East,100,0.0,1.0,96,0.00,,,0.00,WeatherLinkWUIModule,2013-01-29 13:31:00,
2013-01-29 08:41:00,33.5,32.5,30.00,East,100,0.0,1.0,96,0.00,,,0.00,WeatherLinkWUIModule,2013-01-29 13:41:00,
2013-01-29 08:51:00,34.0,33.0,29.99,East,100,0.0,0.0,96,0.00,,,0.00,WeatherLinkWUIModule,2013-01-29 13:51:00,
2013-01-29 09:01:00,34.6,33.8,29.97,East,100,0.0,0.0,97,0.00,,,0.00,WeatherLinkWUIModule,2013-01-29 14:01:00,
2013-01-29 09:11:00,35.0,34.2,29.97,East,100,0.0,1.0,97,0.00,,,0.00,WeatherLinkWUIModule,2013-01-29 14:11:00,
2013-01-29 09:21:00,35.3,34.5,29.98,East,100,0.0,0.0,97,0.00,,,0.00,WeatherLinkWUIModule,2013-01-29 14:21:00,
2013-01-29 09:31:00,35.6,34.8,29.97,East,100,2.0,0.0,97,0.00,,,0.00,WeatherLinkWUIModule,2013-01-29 14:31:00,
2013-01-29 09:41:00,35.9,35.1,29.97,East,100,0.0,0.0,97,0.00,,,0.00,WeatherLinkWUIModule,2013-01-29 14:41:00,
2013-01-29 09:51:00,36.3,35.5,29.96,East,100,0.0,2.0,97,0.00,,,0.00,WeatherLinkWUIModule,2013-01-29 14:51:00,
2013-01-29 10:01:00,36.6,35.8,29.95,SSW,213,0.0,1.0,97,0.00,,,0.00,WeatherLinkWUIModule,2013-01-29 15:01:00,
2013-01-29 10:11:00,36.8,36.0,29.95,South,188,1.0,0.0,97,0.00,,,0.00,WeatherLinkWUIModule,2013-01-29 15:11:00,
2013-01-29 10:21:00,36.9,36.1,29.95,South,188,0.0,0.0,97,0.00,,,0.00,WeatherLinkWUIModule,2013-01-29 15:21:00,
2013-01-29 10:31:00,37.2,36.4,29.95,South,188,0.0,0.0,97,0.00,,,0.00,WeatherLinkWUIModule,2013-01-29 15:31:00,
2013-01-29 10:41:00,37.5,36.7,29.95,SSE,162,0.0,2.0,97,0.00,,,0.00,WeatherLinkWUIModule,2013-01-29 15:41:00,
2013-01-29 10:51:00,37.8,37.0,29.95,SSW,210,0.0,3.0,97,0.00,,,0.00,WeatherLinkWUIModule,2013-01-29 15:51:00,
2013-01-29 11:01:00,37.9,37.1,29.93,ESE,113,3.0,3.0,97,0.00,,,0.00,WeatherLinkWUIModule,2013-01-29 16:01:00,
2013-01-29 11:11:00,38.0,37.2,29.93,East,99,2.0,2.0,97,0.00,,,0.00,WeatherLinkWUIModule,2013-01-29 16:11:00,
2013-01-29 11:21:00,38.5,37.7,29.90,East,98,0.0,4.0,97,0.00,,,0.00,WeatherLinkWUIModule,2013-01-29 16:21:00,
2013-01-29 11:31:00,38.6,37.8,29.90,SE,127,1.0,0.0,97,0.00,,,0.00,WeatherLinkWUIModule,2013-01-29 16:31:00,
2013-01-29 11:41:00,38.6,37.8,29.90,SW,220,0.0,2.0,97,0.00,,,0.00,WeatherLinkWUIModule,2013-01-29 16:41:00,
2013-01-29 11:51:00,38.8,38.0,29.90,ESE,110,0.0,4.0,97,0.00,,,0.00,WeatherLinkWUIModule,2013-01-29 16:51:00,
2013-01-29 12:01:00,38.9,38.1,29.89,ESE,110,1.0,2.0,97,0.00,,,0.01,WeatherLinkWUIModule,2013-01-29 17:01:00,
2013-01-29 12:11:00,38.9,38.1,29.89,ESE,110,0.0,0.0,97,0.00,,,0.01,WeatherLinkWUIModule,2013-01-29 17:11:00,
2013-01-29 12:21:00,38.9,38.1,29.90,ESE,110,0.0,0.0,97,0.10,,,0.02,WeatherLinkWUIModule,2013-01-29 17:21:00,
2013-01-29 12:31:00,38.9,38.1,29.90,ESE,110,0.0,0.0,97,0.24,,,0.06,WeatherLinkWUIModule,2013-01-29 17:31:00,
2013-01-29 12:41:00,38.9,38.1,29.90,ESE,110,0.0,0.0,97,0.22,,,0.10,WeatherLinkWUIModule,2013-01-29 17:41:00,
2013-01-29 12:51:00,38.9,38.1,29.87,NW,314,7.0,7.0,97,0.25,,,0.14,WeatherLinkWUIModule,2013-01-29 17:51:00,
2013-01-29 13:01:00,39.1,38.3,29.81,SSE,165,0.0,6.0,97,0.14,,,0.17,WeatherLinkWUIModule,2013-01-29 18:01:00,
2013-01-29 13:11:00,39.9,39.1,29.81,ENE,76,2.0,4.0,97,0.04,,,0.17,WeatherLinkWUIModule,2013-01-29 18:11:00,
2013-01-29 13:21:00,40.3,39.5,29.82,ESE,113,0.0,2.0,97,0.00,,,0.17,WeatherLinkWUIModule,2013-01-29 18:21:00,
2013-01-29 13:31:00,40.6,39.8,29.85,ESE,113,0.0,0.0,97,0.00,,,0.17,WeatherLinkWUIModule,2013-01-29 18:31:00,
2013-01-29 13:41:00,40.8,40.0,29.85,ESE,113,0.0,0.0,97,0.00,,,0.17,WeatherLinkWUIModule,2013-01-29 18:41:00,
2013-01-29 13:51:00,41.2,40.4,29.82,ESE,113,0.0,0.0,97,0.00,,,0.17,WeatherLinkWUIModule,2013-01-29 18:51:00,
2013-01-29 14:01:00,41.6,40.8,29.81,SSE,160,0.0,0.0,97,0.00,,,0.17,WeatherLinkWUIModule,2013-01-29 19:01:00,
2013-01-29 14:11:00,42.1,41.6,29.81,SSE,165,0.0,1.0,98,0.00,,,0.17,WeatherLinkWUIModule,2013-01-29 19:11:00,
2013-01-29 14:21:00,42.5,42.0,29.81,SSE,165,0.0,2.0,98,0.00,,,0.17,WeatherLinkWUIModule,2013-01-29 19:21:00,
2013-01-29 14:31:00,42.9,42.4,29.80,SSE,166,0.0,3.0,98,0.00,,,0.17,WeatherLinkWUIModule,2013-01-29 19:31:00,
2013-01-29 14:41:00,43.2,42.7,29.80,SSE,168,0.0,0.0,98,0.00,,,0.17,WeatherLinkWUIModule,2013-01-29 19:41:00,
2013-01-29 14:51:00,43.3,42.8,29.79,SSW,194,0.0,3.0,98,0.00,,,0.17,WeatherLinkWUIModule,2013-01-29 19:51:00,
2013-01-29 15:01:00,43.5,43.0,29.79,SW,220,0.0,1.0,98,0.00,,,0.17,WeatherLinkWUIModule,2013-01-29 20:01:00,
2013-01-29 15:11:00,43.6,43.1,29.79,SW,220,0.0,3.0,98,0.00,,,0.17,WeatherLinkWUIModule,2013-01-29 20:11:00,
2013-01-29 15:21:00,43.6,43.1,29.79,SSW,202,1.0,1.0,98,0.00,,,0.17,WeatherLinkWUIModule,2013-01-29 20:21:00,
2013-01-29 15:31:00,43.8,43.3,29.81,SSW,206,0.0,0.0,98,0.06,,,0.18,WeatherLinkWUIModule,2013-01-29 20:31:00,
2013-01-29 15:41:00,43.8,43.3,29.81,SSW,206,0.0,2.0,98,0.14,,,0.21,WeatherLinkWUIModule,2013-01-29 20:41:00,
2013-01-29 15:51:00,43.9,43.4,29.80,SW,214,0.0,4.0,98,0.20,,,0.23,WeatherLinkWUIModule,2013-01-29 20:51:00,
2013-01-29 16:01:00,44.1,43.6,29.79,SW,214,0.0,0.0,98,0.10,,,0.26,WeatherLinkWUIModule,2013-01-29 21:01:00,
2013-01-29 16:11:00,44.2,43.7,29.79,South,188,1.0,2.0,98,0.07,,,0.27,WeatherLinkWUIModule,2013-01-29 21:11:00,
2013-01-29 16:21:00,44.3,43.8,29.80,South,188,0.0,0.0,98,0.12,,,0.29,WeatherLinkWUIModule,2013-01-29 21:21:00,
2013-01-29 16:31:00,44.6,44.1,29.78,SSW,198,0.0,4.0,98,0.19,,,0.31,WeatherLinkWUIModule,2013-01-29 21:31:00,
2013-01-29 16:41:00,45.1,44.6,29.78,WSW,252,0.0,1.0,98,0.08,,,0.32,WeatherLinkWUIModule,2013-01-29 21:41:00,
2013-01-29 16:51:00,45.5,45.0,29.78,SW,224,0.0,0.0,98,0.00,,,0.32,WeatherLinkWUIModule,2013-01-29 21:51:00,
2013-01-29 17:01:00,46.1,45.6,29.78,West,260,0.0,0.0,98,0.00,,,0.32,WeatherLinkWUIModule,2013-01-29 22:01:00,
2013-01-29 17:11:00,46.8,46.3,29.78,WSW,245,0.0,4.0,98,0.00,,,0.32,WeatherLinkWUIModule,2013-01-29 22:11:00,
2013-01-29 17:21:00,47.4,46.9,29.79,ESE,120,0.0,1.0,98,0.00,,,0.32,WeatherLinkWUIModule,2013-01-29 22:21:00,
2013-01-29 17:31:00,47.9,47.4,29.79,WSW,253,4.0,4.0,98,0.00,,,0.32,WeatherLinkWUIModule,2013-01-29 22:31:00,
2013-01-29 17:41:00,48.0,47.5,29.79,SW,224,1.0,0.0,98,0.00,,,0.32,WeatherLinkWUIModule,2013-01-29 22:41:00,
2013-01-29 17:51:00,48.2,47.7,29.78,WSW,245,1.0,3.0,98,0.00,,,0.32,WeatherLinkWUIModule,2013-01-29 22:51:00,
2013-01-29 18:01:00,48.3,47.8,29.78,SW,224,0.0,2.0,98,0.00,,,0.32,WeatherLinkWUIModule,2013-01-29 23:01:00,
2013-01-29 18:11:00,48.6,48.1,29.78,SSE,153,0.0,4.0,98,0.00,,,0.32,WeatherLinkWUIModule,2013-01-29 23:11:00,
2013-01-29 18:21:00,48.8,48.3,29.77,SSW,192,0.0,2.0,98,0.00,,,0.32,WeatherLinkWUIModule,2013-01-29 23:21:00,
2013-01-29 18:31:00,48.9,48.4,29.77,SW,222,1.0,0.0,98,0.00,,,0.32,WeatherLinkWUIModule,2013-01-29 23:31:00,
2013-01-29 18:41:00,49.1,48.6,29.77,WSW,242,2.0,0.0,98,0.00,,,0.32,WeatherLinkWUIModule,2013-01-29 23:41:00,
2013-01-29 18:51:00,49.2,48.7,29.76,SSW,198,0.0,4.0,98,0.00,,,0.32,WeatherLinkWUIModule,2013-01-29 23:51:00,
2013-01-29 19:01:00,49.4,48.9,29.77,WNW,287,1.0,0.0,98,0.00,,,0.32,WeatherLinkWUIModule,2013-01-30 00:01:00,
2013-01-29 19:11:00,49.5,49.0,29.77,SSW,200,0.0,6.0,98,0.00,,,0.32,WeatherLinkWUIModule,2013-01-30 00:11:00,
2013-01-29 19:21:00,49.8,49.3,29.77,WSW,247,9.0,9.0,98,0.00,,,0.32,WeatherLinkWUIModule,2013-01-30 00:21:00,
2013-01-29 19:31:00,49.9,49.9,29.76,West,262,1.0,12.0,100,0.00,,,0.32,WeatherLinkWUIModule,2013-01-30 00:31:00,
2013-01-29 19:41:00,50.1,49.6,29.76,SW,217,4.0,4.0,98,0.00,,,0.32,WeatherLinkWUIModule,2013-01-30 00:41:00,
2013-01-29 19:51:00,50.2,49.7,29.76,WSW,252,0.0,1.0,98,0.00,,,0.32,WeatherLinkWUIModule,2013-01-30 00:51:00,
2013-01-29 20:01:00,50.4,49.9,29.76,SW,232,4.0,4.0,98,0.00,,,0.32,WeatherLinkWUIModule,2013-01-30 01:01:00,
2013-01-29 20:11:00,50.4,49.9,29.76,SW,221,0.0,4.0,98,0.00,,,0.32,WeatherLinkWUIModule,2013-01-30 01:11:00,
2013-01-29 20:21:00,50.5,50.0,29.77,SW,226,3.0,3.0,98,0.00,,,0.32,WeatherLinkWUIModule,2013-01-30 01:21:00,
2013-01-29 20:31:00,50.5,50.0,29.75,WSW,250,3.0,4.0,98,0.10,,,0.34,WeatherLinkWUIModule,2013-01-30 01:31:00,
2013-01-29 20:41:00,50.5,50.0,29.75,West,264,0.0,3.0,98,0.04,,,0.34,WeatherLinkWUIModule,2013-01-30 01:41:00,
2013-01-29 20:51:00,50.5,50.0,29.75,SW,227,0.0,2.0,98,0.00,,,0.34,WeatherLinkWUIModule,2013-01-30 01:51:00,
2013-01-29 21:01:00,50.5,50.0,29.75,SW,227,2.0,2.0,98,0.00,,,0.34,WeatherLinkWUIModule,2013-01-30 02:01:00,
2013-01-29 21:11:00,50.5,50.0,29.75,SSW,196,0.0,2.0,98,0.00,,,0.34,WeatherLinkWUIModule,2013-01-30 02:11:00,
2013-01-29 21:21:00,50.5,50.0,29.75,SSW,196,0.0,0.0,98,0.00,,,0.34,WeatherLinkWUIModule,2013-01-30 02:21:00,
2013-01-29 21:31:00,50.5,50.0,29.75,SSW,196,0.0,0.0,98,0.00,,,0.34,WeatherLinkWUIModule,2013-01-30 02:31:00,
2013-01-29 21:41:00,50.5,50.0,29.75,SW,224,0.0,4.0,98,0.00,,,0.34,WeatherLinkWUIModule,2013-01-30 02:41:00,
2013-01-29 21:51:00,50.5,50.0,29.74,SW,233,1.0,1.0,98,0.00,,,0.34,WeatherLinkWUIModule,2013-01-30 02:51:00,
2013-01-29 22:01:00,50.7,50.2,29.73,South,173,1.0,2.0,98,0.00,,,0.34,WeatherLinkWUIModule,2013-01-30 03:01:00,
2013-01-29 22:11:00,50.8,50.3,29.73,WSW,241,2.0,2.0,98,0.00,,,0.35,WeatherLinkWUIModule,2013-01-30 03:11:00,
2013-01-29 22:21:00,51.0,50.5,29.74,West,259,2.0,4.0,98,0.00,,,0.35,WeatherLinkWUIModule,2013-01-30 03:21:00,
2013-01-29 22:31:00,51.3,50.8,29.73,SW,233,0.0,3.0,98,0.00,,,0.35,WeatherLinkWUIModule,2013-01-30 03:31:00,
2013-01-29 22:41:00,51.4,51.4,29.73,SE,129,2.0,3.0,100,0.00,,,0.35,WeatherLinkWUIModule,2013-01-30 03:41:00,
2013-01-29 22:51:00,51.6,51.1,29.71,WSW,246,1.0,5.0,98,0.00,,,0.36,WeatherLinkWUIModule,2013-01-30 03:51:00,
2013-01-29 23:01:00,51.9,51.4,29.70,NE,55,4.0,4.0,98,0.00,,,0.36,WeatherLinkWUIModule,2013-01-30 04:01:00,
2013-01-29 23:11:00,52.2,51.7,29.70,SE,124,0.0,7.0,98,0.00,,,0.36,WeatherLinkWUIModule,2013-01-30 04:11:00,
2013-01-29 23:21:00,52.3,51.8,29.69,WSW,258,0.0,7.0,98,0.00,,,0.36,WeatherLinkWUIModule,2013-01-30 04:21:00,
2013-01-29 23:31:00,52.6,52.1,29.69,SSW,195,4.0,9.0,98,0.00,,,0.36,WeatherLinkWUIModule,2013-01-30 04:31:00,
2013-01-29 23:41:00,53.1,52.6,29.69,WNW,302,4.0,6.0,98,0.00,,,0.37,WeatherLinkWUIModule,2013-01-30 04:41:00,
2013-01-29 23:51:00,53.1,52.6,29.69,SW,236,0.0,5.0,98,0.00,,,0.37,WeatherLinkWUIModule,2013-01-30 04:51:00,